sensor_id;sensor_type;location;lat;lon;timestamp;temperature;humidity
8988;DHT22;4529;51.360;12.474;2024-02-15T00:01:34;10.10;99.90
8988;DHT22;4529;51.360;12.474;2024-02-15T00:06:37;10.10;99.90
8988;DHT22;4529;51.360;12.474;2024-02-15T00:11:41;10.10;99.90
8988;DHT22;4529;51.360;12.474;2024-02-15T00:16:45;10.10;99.90
8988;DHT22;4529;51.360;12.474;2024-02-15T00:21:49;10.10;99.90
8988;DHT22;4529;51.360;12.474;2024-02-15T00:26:53;10.10;99.90
8988;DHT22;4529;51.360;12.474;2024-02-15T00:31:57;10.00;99.90
8988;DHT22;4529;51.360;12.474;2024-02-15T00:37:01;10.00;99.90
8988;DHT22;4529;51.360;12.474;2024-02-15T00:42:05;10.00;99.90
8988;DHT22;4529;51.360;12.474;2024-02-15T00:47:12;10.00;99.90
8988;DHT22;4529;51.360;12.474;2024-02-15T00:52:16;10.00;99.90
8988;DHT22;4529;51.360;12.474;2024-02-15T00:57:19;10.00;99.90
8988;DHT22;4529;51.360;12.474;2024-02-15T01:02:24;10.10;99.90
8988;DHT22;4529;51.360;12.474;2024-02-15T01:07:28;10.10;99.90
8988;DHT22;4529;51.360;12.474;2024-02-15T01:12:31;10.10;99.90
8988;DHT22;4529;51.360;12.474;2024-02-15T01:17:35;10.10;99.90
8988;DHT22;4529;51.360;12.474;2024-02-15T01:22:39;10.20;99.90
8988;DHT22;4529;51.360;12.474;2024-02-15T01:27:43;10.10;99.90
8988;DHT22;4529;51.360;12.474;2024-02-15T01:32:46;10.20;99.90
8988;DHT22;4529;51.360;12.474;2024-02-15T01:37:49;10.20;99.90
8988;DHT22;4529;51.360;12.474;2024-02-15T01:42:53;10.20;99.90
8988;DHT22;4529;51.360;12.474;2024-02-15T01:47:56;10.20;99.90
8988;DHT22;4529;51.360;12.474;2024-02-15T01:53:01;10.10;99.90
8988;DHT22;4529;51.360;12.474;2024-02-15T01:58:04;10.10;99.90
8988;DHT22;4529;51.360;12.474;2024-02-15T02:03:07;10.20;99.90
8988;DHT22;4529;51.360;12.474;2024-02-15T02:08:11;10.10;99.90
8988;DHT22;4529;51.360;12.474;2024-02-15T02:13:15;10.20;99.90
8988;DHT22;4529;51.360;12.474;2024-02-15T02:18:19;10.20;99.90
8988;DHT22;4529;51.360;12.474;2024-02-15T02:23:26;10.20;99.90
8988;DHT22;4529;51.360;12.474;2024-02-15T02:28:27;10.20;99.90
8988;DHT22;4529;51.360;12.474;2024-02-15T02:33:31;10.30;99.90
8988;DHT22;4529;51.360;12.474;2024-02-15T02:38:35;10.20;99.90
8988;DHT22;4529;51.360;12.474;2024-02-15T02:43:41;10.30;99.90
8988;DHT22;4529;51.360;12.474;2024-02-15T02:48:44;10.30;99.90
8988;DHT22;4529;51.360;12.474;2024-02-15T02:53:48;10.30;99.90
8988;DHT22;4529;51.360;12.474;2024-02-15T02:58:52;10.30;99.90
8988;DHT22;4529;51.360;12.474;2024-02-15T03:03:57;10.40;99.90
8988;DHT22;4529;51.360;12.474;2024-02-15T03:09:01;10.40;99.90
8988;DHT22;4529;51.360;12.474;2024-02-15T03:14:05;10.40;99.90
8988;DHT22;4529;51.360;12.474;2024-02-15T03:19:09;10.40;99.90
8988;DHT22;4529;51.360;12.474;2024-02-15T03:24:13;10.40;99.90
8988;DHT22;4529;51.360;12.474;2024-02-15T03:29:17;10.40;99.90
8988;DHT22;4529;51.360;12.474;2024-02-15T03:34:20;10.40;99.90
8988;DHT22;4529;51.360;12.474;2024-02-15T03:39:24;10.40;99.90
8988;DHT22;4529;51.360;12.474;2024-02-15T03:44:27;10.40;99.90
8988;DHT22;4529;51.360;12.474;2024-02-15T03:49:30;10.30;99.90
8988;DHT22;4529;51.360;12.474;2024-02-15T03:54:34;10.40;99.90
8988;DHT22;4529;51.360;12.474;2024-02-15T03:59:37;10.40;99.90
8988;DHT22;4529;51.360;12.474;2024-02-15T04:04:41;10.40;99.90
8988;DHT22;4529;51.360;12.474;2024-02-15T04:09:47;10.40;99.90
8988;DHT22;4529;51.360;12.474;2024-02-15T04:14:50;10.30;99.90
8988;DHT22;4529;51.360;12.474;2024-02-15T04:19:54;10.40;99.90
8988;DHT22;4529;51.360;12.474;2024-02-15T04:24:57;10.40;99.90
8988;DHT22;4529;51.360;12.474;2024-02-15T04:30:01;10.40;99.90
8988;DHT22;4529;51.360;12.474;2024-02-15T04:35:05;10.40;99.90
8988;DHT22;4529;51.360;12.474;2024-02-15T04:40:08;10.40;99.90
8988;DHT22;4529;51.360;12.474;2024-02-15T04:45:12;10.40;99.90
8988;DHT22;4529;51.360;12.474;2024-02-15T04:50:16;10.40;99.90
8988;DHT22;4529;51.360;12.474;2024-02-15T04:55:20;10.50;99.90
8988;DHT22;4529;51.360;12.474;2024-02-15T05:00:25;10.40;99.90
8988;DHT22;4529;51.360;12.474;2024-02-15T05:05:28;10.40;99.90
8988;DHT22;4529;51.360;12.474;2024-02-15T05:10:33;10.40;99.90
8988;DHT22;4529;51.360;12.474;2024-02-15T05:15:36;10.40;99.90
8988;DHT22;4529;51.360;12.474;2024-02-15T05:20:40;10.50;99.90
8988;DHT22;4529;51.360;12.474;2024-02-15T05:25:43;10.50;99.90
8988;DHT22;4529;51.360;12.474;2024-02-15T05:30:47;10.50;99.90
8988;DHT22;4529;51.360;12.474;2024-02-15T05:35:50;10.50;99.90
8988;DHT22;4529;51.360;12.474;2024-02-15T05:40:53;10.50;99.90
8988;DHT22;4529;51.360;12.474;2024-02-15T05:45:57;10.50;99.90
8988;DHT22;4529;51.360;12.474;2024-02-15T05:51:01;10.60;99.90
8988;DHT22;4529;51.360;12.474;2024-02-15T05:56:05;10.50;99.90
8988;DHT22;4529;51.360;12.474;2024-02-15T06:01:09;10.50;99.90
8988;DHT22;4529;51.360;12.474;2024-02-15T06:06:12;10.60;99.90
8988;DHT22;4529;51.360;12.474;2024-02-15T06:11:18;10.50;99.90
8988;DHT22;4529;51.360;12.474;2024-02-15T06:16:19;10.50;99.90
8988;DHT22;4529;51.360;12.474;2024-02-15T06:21:23;10.50;99.90
8988;DHT22;4529;51.360;12.474;2024-02-15T06:26:26;10.40;99.90
8988;DHT22;4529;51.360;12.474;2024-02-15T06:31:30;10.30;99.90
8988;DHT22;4529;51.360;12.474;2024-02-15T06:36:33;10.20;99.90
8988;DHT22;4529;51.360;12.474;2024-02-15T06:41:36;10.30;99.90
8988;DHT22;4529;51.360;12.474;2024-02-15T06:46:40;10.20;99.90
8988;DHT22;4529;51.360;12.474;2024-02-15T06:51:43;10.20;99.90
8988;DHT22;4529;51.360;12.474;2024-02-15T06:56:47;10.20;99.90
8988;DHT22;4529;51.360;12.474;2024-02-15T07:01:50;10.20;99.90
8988;DHT22;4529;51.360;12.474;2024-02-15T07:06:54;10.30;99.90
8988;DHT22;4529;51.360;12.474;2024-02-15T07:11:59;10.30;99.90
8988;DHT22;4529;51.360;12.474;2024-02-15T07:17:03;10.40;99.90
8988;DHT22;4529;51.360;12.474;2024-02-15T07:22:07;10.60;99.90
8988;DHT22;4529;51.360;12.474;2024-02-15T07:27:11;10.60;99.90
8988;DHT22;4529;51.360;12.474;2024-02-15T07:32:15;10.70;99.90
8988;DHT22;4529;51.360;12.474;2024-02-15T07:37:19;10.80;99.90
8988;DHT22;4529;51.360;12.474;2024-02-15T07:42:23;10.90;99.90
8988;DHT22;4529;51.360;12.474;2024-02-15T07:47:27;10.90;99.90
8988;DHT22;4529;51.360;12.474;2024-02-15T07:52:30;10.90;99.90
8988;DHT22;4529;51.360;12.474;2024-02-15T07:57:34;10.90;99.90
8988;DHT22;4529;51.360;12.474;2024-02-15T08:02:40;10.90;99.90
8988;DHT22;4529;51.360;12.474;2024-02-15T08:07:45;11.00;99.90
8988;DHT22;4529;51.360;12.474;2024-02-15T08:12:49;11.10;99.90
8988;DHT22;4529;51.360;12.474;2024-02-15T08:17:53;11.20;99.90
8988;DHT22;4529;51.360;12.474;2024-02-15T08:22:57;11.20;99.90
8988;DHT22;4529;51.360;12.474;2024-02-15T08:28:01;11.20;99.90
8988;DHT22;4529;51.360;12.474;2024-02-15T08:33:05;11.30;99.90
8988;DHT22;4529;51.360;12.474;2024-02-15T08:38:14;11.30;99.90
8988;DHT22;4529;51.360;12.474;2024-02-15T08:43:19;11.40;99.90
8988;DHT22;4529;51.360;12.474;2024-02-15T08:48:23;11.40;99.90
8988;DHT22;4529;51.360;12.474;2024-02-15T08:53:27;11.50;99.90
8988;DHT22;4529;51.360;12.474;2024-02-15T08:58:31;11.60;99.90
8988;DHT22;4529;51.360;12.474;2024-02-15T09:03:34;11.60;99.90
8988;DHT22;4529;51.360;12.474;2024-02-15T09:08:38;11.60;99.90
8988;DHT22;4529;51.360;12.474;2024-02-15T09:13:41;11.70;99.90
8988;DHT22;4529;51.360;12.474;2024-02-15T09:18:46;11.70;99.90
8988;DHT22;4529;51.360;12.474;2024-02-15T09:23:50;11.80;99.90
8988;DHT22;4529;51.360;12.474;2024-02-15T09:28:54;11.90;99.90
8988;DHT22;4529;51.360;12.474;2024-02-15T09:33:58;12.00;99.90
8988;DHT22;4529;51.360;12.474;2024-02-15T09:39:02;12.10;99.90
8988;DHT22;4529;51.360;12.474;2024-02-15T09:44:06;12.20;99.90
8988;DHT22;4529;51.360;12.474;2024-02-15T09:49:10;12.20;99.90
8988;DHT22;4529;51.360;12.474;2024-02-15T09:54:14;12.40;99.90
8988;DHT22;4529;51.360;12.474;2024-02-15T09:59:18;12.50;99.90
8988;DHT22;4529;51.360;12.474;2024-02-15T10:04:22;12.60;99.90
8988;DHT22;4529;51.360;12.474;2024-02-15T10:09:27;12.60;99.90
8988;DHT22;4529;51.360;12.474;2024-02-15T10:14:30;12.70;99.90
8988;DHT22;4529;51.360;12.474;2024-02-15T10:19:35;12.70;99.90
8988;DHT22;4529;51.360;12.474;2024-02-15T10:24:39;12.70;99.90
8988;DHT22;4529;51.360;12.474;2024-02-15T10:29:43;12.70;99.90
8988;DHT22;4529;51.360;12.474;2024-02-15T10:34:46;12.70;99.90
8988;DHT22;4529;51.360;12.474;2024-02-15T10:40:05;12.70;99.90
8988;DHT22;4529;51.360;12.474;2024-02-15T10:45:09;12.80;99.90
8988;DHT22;4529;51.360;12.474;2024-02-15T10:50:12;12.80;99.90
8988;DHT22;4529;51.360;12.474;2024-02-15T10:55:18;12.80;99.90
8988;DHT22;4529;51.360;12.474;2024-02-15T11:00:20;12.80;99.90
8988;DHT22;4529;51.360;12.474;2024-02-15T11:05:23;12.90;99.90
8988;DHT22;4529;51.360;12.474;2024-02-15T11:10:27;13.00;99.90
8988;DHT22;4529;51.360;12.474;2024-02-15T11:25:47;13.30;99.90
8988;DHT22;4529;51.360;12.474;2024-02-15T11:30:51;13.40;99.90
8988;DHT22;4529;51.360;12.474;2024-02-15T11:36:10;13.40;99.90
8988;DHT22;4529;51.360;12.474;2024-02-15T11:41:17;13.40;99.90
8988;DHT22;4529;51.360;12.474;2024-02-15T11:46:17;13.50;99.90
8988;DHT22;4529;51.360;12.474;2024-02-15T11:56:29;13.70;99.90
8988;DHT22;4529;51.360;12.474;2024-02-15T12:01:33;14.00;99.90
8988;DHT22;4529;51.360;12.474;2024-02-15T12:06:38;13.90;99.90
8988;DHT22;4529;51.360;12.474;2024-02-15T12:11:42;14.00;99.90
8988;DHT22;4529;51.360;12.474;2024-02-15T12:16:46;14.10;99.90
8988;DHT22;4529;51.360;12.474;2024-02-15T12:21:50;14.20;99.90
8988;DHT22;4529;51.360;12.474;2024-02-15T12:27:00;14.20;99.90
8988;DHT22;4529;51.360;12.474;2024-02-15T12:32:04;14.20;99.90
8988;DHT22;4529;51.360;12.474;2024-02-15T12:37:08;14.10;99.90
8988;DHT22;4529;51.360;12.474;2024-02-15T12:42:12;14.10;99.90
8988;DHT22;4529;51.360;12.474;2024-02-15T12:47:22;14.10;99.90
8988;DHT22;4529;51.360;12.474;2024-02-15T12:52:37;14.10;99.90
8988;DHT22;4529;51.360;12.474;2024-02-15T12:57:41;14.30;99.90
8988;DHT22;4529;51.360;12.474;2024-02-15T13:02:45;14.30;99.90
8988;DHT22;4529;51.360;12.474;2024-02-15T13:07:49;14.30;99.90
8988;DHT22;4529;51.360;12.474;2024-02-15T13:12:53;14.40;99.90
8988;DHT22;4529;51.360;12.474;2024-02-15T13:17:57;14.30;99.90
8988;DHT22;4529;51.360;12.474;2024-02-15T13:23:05;14.30;99.90
8988;DHT22;4529;51.360;12.474;2024-02-15T13:28:08;14.30;99.90
8988;DHT22;4529;51.360;12.474;2024-02-15T13:33:14;14.20;99.90
8988;DHT22;4529;51.360;12.474;2024-02-15T13:38:18;14.20;99.90
8988;DHT22;4529;51.360;12.474;2024-02-15T13:43:22;14.20;99.90
8988;DHT22;4529;51.360;12.474;2024-02-15T13:48:29;14.30;99.90
8988;DHT22;4529;51.360;12.474;2024-02-15T13:53:33;14.30;99.90
8988;DHT22;4529;51.360;12.474;2024-02-15T13:58:37;14.30;99.90
8988;DHT22;4529;51.360;12.474;2024-02-15T14:03:42;14.40;99.90
8988;DHT22;4529;51.360;12.474;2024-02-15T14:08:46;14.40;99.90
8988;DHT22;4529;51.360;12.474;2024-02-15T14:13:49;14.50;99.90
8988;DHT22;4529;51.360;12.474;2024-02-15T14:18:53;14.60;99.90
8988;DHT22;4529;51.360;12.474;2024-02-15T14:23:56;14.70;99.90
8988;DHT22;4529;51.360;12.474;2024-02-15T14:28:59;14.70;99.90
8988;DHT22;4529;51.360;12.474;2024-02-15T14:34:03;14.80;99.90
8988;DHT22;4529;51.360;12.474;2024-02-15T14:39:06;14.80;99.90
8988;DHT22;4529;51.360;12.474;2024-02-15T14:44:11;14.90;99.90
8988;DHT22;4529;51.360;12.474;2024-02-15T14:49:15;14.70;99.90
8988;DHT22;4529;51.360;12.474;2024-02-15T14:54:19;14.70;99.90
8988;DHT22;4529;51.360;12.474;2024-02-15T14:59:23;14.70;99.90
8988;DHT22;4529;51.360;12.474;2024-02-15T15:04:27;14.70;99.90
8988;DHT22;4529;51.360;12.474;2024-02-15T15:09:31;14.90;99.90
8988;DHT22;4529;51.360;12.474;2024-02-15T15:14:35;15.00;99.90
8988;DHT22;4529;51.360;12.474;2024-02-15T15:19:39;15.00;99.90
8988;DHT22;4529;51.360;12.474;2024-02-15T15:24:44;15.00;99.90
8988;DHT22;4529;51.360;12.474;2024-02-15T15:29:48;14.90;99.90
8988;DHT22;4529;51.360;12.474;2024-02-15T15:34:52;14.80;99.90
8988;DHT22;4529;51.360;12.474;2024-02-15T15:39:56;14.70;99.90
8988;DHT22;4529;51.360;12.474;2024-02-15T15:45:03;14.60;99.90
8988;DHT22;4529;51.360;12.474;2024-02-15T15:50:05;14.40;99.90
8988;DHT22;4529;51.360;12.474;2024-02-15T15:55:08;14.40;99.90
8988;DHT22;4529;51.360;12.474;2024-02-15T16:00:12;14.30;99.90
8988;DHT22;4529;51.360;12.474;2024-02-15T16:05:16;14.30;99.90
8988;DHT22;4529;51.360;12.474;2024-02-15T16:10:19;14.30;99.90
8988;DHT22;4529;51.360;12.474;2024-02-15T16:15:23;14.00;99.90
8988;DHT22;4529;51.360;12.474;2024-02-15T16:20:27;14.10;99.90
8988;DHT22;4529;51.360;12.474;2024-02-15T16:25:30;14.00;99.90
8988;DHT22;4529;51.360;12.474;2024-02-15T16:30:37;13.90;99.90
8988;DHT22;4529;51.360;12.474;2024-02-15T16:35:37;13.80;99.90
8988;DHT22;4529;51.360;12.474;2024-02-15T16:40:41;13.60;99.90
8988;DHT22;4529;51.360;12.474;2024-02-15T16:45:45;13.60;99.90
8988;DHT22;4529;51.360;12.474;2024-02-15T16:50:48;13.50;99.90
8988;DHT22;4529;51.360;12.474;2024-02-15T16:55:52;13.30;99.90
8988;DHT22;4529;51.360;12.474;2024-02-15T17:00:56;13.30;99.90
8988;DHT22;4529;51.360;12.474;2024-02-15T17:05:59;13.20;99.90
8988;DHT22;4529;51.360;12.474;2024-02-15T17:11:04;13.10;99.90
8988;DHT22;4529;51.360;12.474;2024-02-15T17:16:07;13.00;99.90
8988;DHT22;4529;51.360;12.474;2024-02-15T17:21:11;12.80;99.90
8988;DHT22;4529;51.360;12.474;2024-02-15T17:26:15;12.70;99.90
8988;DHT22;4529;51.360;12.474;2024-02-15T17:31:20;12.60;99.90
8988;DHT22;4529;51.360;12.474;2024-02-15T17:36:24;12.50;99.90
8988;DHT22;4529;51.360;12.474;2024-02-15T17:41:28;12.40;99.90
8988;DHT22;4529;51.360;12.474;2024-02-15T17:46:31;12.40;99.90
8988;DHT22;4529;51.360;12.474;2024-02-15T17:51:35;12.30;99.90
8988;DHT22;4529;51.360;12.474;2024-02-15T17:56:38;12.20;99.90
8988;DHT22;4529;51.360;12.474;2024-02-15T18:01:42;12.20;99.90
8988;DHT22;4529;51.360;12.474;2024-02-15T18:06:45;12.20;99.90
8988;DHT22;4529;51.360;12.474;2024-02-15T18:11:49;12.20;99.90
8988;DHT22;4529;51.360;12.474;2024-02-15T18:16:52;12.10;99.90
8988;DHT22;4529;51.360;12.474;2024-02-15T18:21:57;12.00;99.90
8988;DHT22;4529;51.360;12.474;2024-02-15T18:27:00;12.00;99.90
8988;DHT22;4529;51.360;12.474;2024-02-15T18:32:05;12.00;99.90
8988;DHT22;4529;51.360;12.474;2024-02-15T18:37:09;12.00;99.90
8988;DHT22;4529;51.360;12.474;2024-02-15T18:42:13;12.00;99.90
8988;DHT22;4529;51.360;12.474;2024-02-15T18:47:17;12.10;99.90
8988;DHT22;4529;51.360;12.474;2024-02-15T18:52:21;12.10;99.90
8988;DHT22;4529;51.360;12.474;2024-02-15T18:57:25;12.10;99.90
8988;DHT22;4529;51.360;12.474;2024-02-15T19:02:28;12.20;99.90
8988;DHT22;4529;51.360;12.474;2024-02-15T19:07:32;12.30;99.90
8988;DHT22;4529;51.360;12.474;2024-02-15T19:12:35;12.40;99.90
8988;DHT22;4529;51.360;12.474;2024-02-15T19:17:39;12.50;99.90
8988;DHT22;4529;51.360;12.474;2024-02-15T19:22:42;12.50;99.90
8988;DHT22;4529;51.360;12.474;2024-02-15T19:27:46;12.50;99.90
8988;DHT22;4529;51.360;12.474;2024-02-15T19:32:49;12.60;99.90
8988;DHT22;4529;51.360;12.474;2024-02-15T19:37:53;12.50;99.90
8988;DHT22;4529;51.360;12.474;2024-02-15T19:42:57;12.40;99.90
8988;DHT22;4529;51.360;12.474;2024-02-15T19:48:00;12.40;99.90
8988;DHT22;4529;51.360;12.474;2024-02-15T19:53:04;12.40;99.90
8988;DHT22;4529;51.360;12.474;2024-02-15T19:58:07;12.40;99.90
8988;DHT22;4529;51.360;12.474;2024-02-15T20:03:10;12.30;99.90
8988;DHT22;4529;51.360;12.474;2024-02-15T20:08:14;12.20;99.90
8988;DHT22;4529;51.360;12.474;2024-02-15T20:13:18;12.00;99.90
8988;DHT22;4529;51.360;12.474;2024-02-15T20:18:22;12.00;99.90
8988;DHT22;4529;51.360;12.474;2024-02-15T20:23:25;11.80;99.90
8988;DHT22;4529;51.360;12.474;2024-02-15T20:28:29;11.70;99.90
8988;DHT22;4529;51.360;12.474;2024-02-15T20:33:32;11.50;99.90
8988;DHT22;4529;51.360;12.474;2024-02-15T20:38:36;11.40;99.90
8988;DHT22;4529;51.360;12.474;2024-02-15T20:43:40;11.40;99.90
8988;DHT22;4529;51.360;12.474;2024-02-15T20:48:43;11.40;99.90
8988;DHT22;4529;51.360;12.474;2024-02-15T20:53:47;11.40;99.90
8988;DHT22;4529;51.360;12.474;2024-02-15T20:58:50;11.30;99.90
8988;DHT22;4529;51.360;12.474;2024-02-15T21:03:54;11.20;99.90
8988;DHT22;4529;51.360;12.474;2024-02-15T21:08:58;11.20;99.90
8988;DHT22;4529;51.360;12.474;2024-02-15T21:14:02;11.10;99.90
8988;DHT22;4529;51.360;12.474;2024-02-15T21:19:07;11.10;99.90
8988;DHT22;4529;51.360;12.474;2024-02-15T21:24:11;10.90;99.90
8988;DHT22;4529;51.360;12.474;2024-02-15T21:29:15;10.70;99.90
8988;DHT22;4529;51.360;12.474;2024-02-15T21:34:20;10.70;99.90
8988;DHT22;4529;51.360;12.474;2024-02-15T21:39:24;10.60;99.90
8988;DHT22;4529;51.360;12.474;2024-02-15T21:44:28;10.40;99.90
8988;DHT22;4529;51.360;12.474;2024-02-15T21:49:32;10.40;99.90
8988;DHT22;4529;51.360;12.474;2024-02-15T21:54:39;10.30;99.90
8988;DHT22;4529;51.360;12.474;2024-02-15T21:59:43;10.30;99.90
8988;DHT22;4529;51.360;12.474;2024-02-15T22:04:46;10.20;99.90
8988;DHT22;4529;51.360;12.474;2024-02-15T22:09:50;10.30;99.90
8988;DHT22;4529;51.360;12.474;2024-02-15T22:14:54;10.30;99.90
8988;DHT22;4529;51.360;12.474;2024-02-15T22:19:57;10.20;99.90
8988;DHT22;4529;51.360;12.474;2024-02-15T22:25:01;10.20;99.90
8988;DHT22;4529;51.360;12.474;2024-02-15T22:30:04;10.30;99.90
8988;DHT22;4529;51.360;12.474;2024-02-15T22:35:08;10.20;99.90
8988;DHT22;4529;51.360;12.474;2024-02-15T22:40:11;10.20;99.90
8988;DHT22;4529;51.360;12.474;2024-02-15T22:45:15;10.20;99.90
8988;DHT22;4529;51.360;12.474;2024-02-15T22:50:18;10.10;99.90
8988;DHT22;4529;51.360;12.474;2024-02-15T22:55:22;10.10;99.90
8988;DHT22;4529;51.360;12.474;2024-02-15T23:00:25;10.00;99.90
8988;DHT22;4529;51.360;12.474;2024-02-15T23:05:29;10.00;99.90
8988;DHT22;4529;51.360;12.474;2024-02-15T23:10:33;9.80;99.90
8988;DHT22;4529;51.360;12.474;2024-02-15T23:15:36;9.80;99.90
8988;DHT22;4529;51.360;12.474;2024-02-15T23:20:40;9.80;99.90
8988;DHT22;4529;51.360;12.474;2024-02-15T23:25:43;9.80;99.90
8988;DHT22;4529;51.360;12.474;2024-02-15T23:30:46;9.70;99.90
8988;DHT22;4529;51.360;12.474;2024-02-15T23:35:50;9.60;99.90
8988;DHT22;4529;51.360;12.474;2024-02-15T23:40:54;9.50;99.90
8988;DHT22;4529;51.360;12.474;2024-02-15T23:45:58;9.40;99.90
8988;DHT22;4529;51.360;12.474;2024-02-15T23:51:02;9.40;99.90
8988;DHT22;4529;51.360;12.474;2024-02-15T23:56:06;9.40;99.90
